sensor_id;sensor_type;location;lat;lon;timestamp;temperature;humidity
1461;DHT22;724;49.910;12.530;2022-12-10T00:02:12;-1.20;1.00
1461;DHT22;724;49.910;12.530;2022-12-10T00:04:39;-1.20;1.00
1461;DHT22;724;49.910;12.530;2022-12-10T00:07:05;-1.30;1.00
1461;DHT22;724;49.910;12.530;2022-12-10T00:09:32;-1.30;1.00
1461;DHT22;724;49.910;12.530;2022-12-10T00:12:00;-1.30;1.00
1461;DHT22;724;49.910;12.530;2022-12-10T00:14:27;-1.30;1.00
1461;DHT22;724;49.910;12.530;2022-12-10T00:16:54;-1.00;1.00
1461;DHT22;724;49.910;12.530;2022-12-10T00:19:21;-1.10;1.00
1461;DHT22;724;49.910;12.530;2022-12-10T00:21:47;-1.20;1.00
1461;DHT22;724;49.910;12.530;2022-12-10T00:24:15;-1.20;1.00
1461;DHT22;724;49.910;12.530;2022-12-10T00:26:41;-1.30;1.00
1461;DHT22;724;49.910;12.530;2022-12-10T00:29:11;-1.30;1.00
1461;DHT22;724;49.910;12.530;2022-12-10T00:31:39;-1.30;1.00
1461;DHT22;724;49.910;12.530;2022-12-10T00:34:06;-1.30;1.00
1461;DHT22;724;49.910;12.530;2022-12-10T00:36:36;-1.20;1.00
1461;DHT22;724;49.910;12.530;2022-12-10T00:39:04;-1.20;1.00
1461;DHT22;724;49.910;12.530;2022-12-10T00:41:31;-1.20;1.00
1461;DHT22;724;49.910;12.530;2022-12-10T00:43:58;-1.20;1.00
1461;DHT22;724;49.910;12.530;2022-12-10T00:46:27;-1.20;1.00
1461;DHT22;724;49.910;12.530;2022-12-10T00:48:57;-1.30;1.00
1461;DHT22;724;49.910;12.530;2022-12-10T00:51:25;-1.30;1.00
1461;DHT22;724;49.910;12.530;2022-12-10T00:53:54;-1.20;1.00
1461;DHT22;724;49.910;12.530;2022-12-10T00:56:24;-1.30;1.00
1461;DHT22;724;49.910;12.530;2022-12-10T00:58:52;-1.40;1.00
1461;DHT22;724;49.910;12.530;2022-12-10T01:01:22;-1.30;1.00
1461;DHT22;724;49.910;12.530;2022-12-10T01:03:52;-1.30;1.00
1461;DHT22;724;49.910;12.530;2022-12-10T01:06:21;-1.10;1.00
1461;DHT22;724;49.910;12.530;2022-12-10T01:08:50;-1.10;1.00
1461;DHT22;724;49.910;12.530;2022-12-10T01:11:18;-1.20;1.00
1461;DHT22;724;49.910;12.530;2022-12-10T01:13:46;-1.30;1.00
1461;DHT22;724;49.910;12.530;2022-12-10T01:16:16;-1.30;1.00
1461;DHT22;724;49.910;12.530;2022-12-10T01:18:43;-1.30;1.00
1461;DHT22;724;49.910;12.530;2022-12-10T01:21:13;-1.30;1.00
1461;DHT22;724;49.910;12.530;2022-12-10T01:23:42;-1.30;1.00
1461;DHT22;724;49.910;12.530;2022-12-10T01:26:11;-1.40;1.00
1461;DHT22;724;49.910;12.530;2022-12-10T01:28:39;-1.20;1.00
1461;DHT22;724;49.910;12.530;2022-12-10T01:31:07;-1.30;1.00
1461;DHT22;724;49.910;12.530;2022-12-10T01:33:35;-1.30;1.00
1461;DHT22;724;49.910;12.530;2022-12-10T01:36:04;-1.30;1.00
1461;DHT22;724;49.910;12.530;2022-12-10T01:38:32;-1.30;1.00
1461;DHT22;724;49.910;12.530;2022-12-10T01:40:59;-1.30;1.00
1461;DHT22;724;49.910;12.530;2022-12-10T01:43:27;-1.30;1.00
1461;DHT22;724;49.910;12.530;2022-12-10T01:45:54;-1.40;1.00
1461;DHT22;724;49.910;12.530;2022-12-10T01:48:20;-1.40;1.00
1461;DHT22;724;49.910;12.530;2022-12-10T01:50:47;-1.50;1.00
1461;DHT22;724;49.910;12.530;2022-12-10T01:53:14;-1.50;1.00
1461;DHT22;724;49.910;12.530;2022-12-10T01:55:46;-1.50;1.00
1461;DHT22;724;49.910;12.530;2022-12-10T01:58:15;-1.40;1.00
1461;DHT22;724;49.910;12.530;2022-12-10T02:00:49;-1.50;1.00
1461;DHT22;724;49.910;12.530;2022-12-10T02:03:23;-1.60;17.00
1461;DHT22;724;49.910;12.530;2022-12-10T02:05:56;-1.60;99.90
1461;DHT22;724;49.910;12.530;2022-12-10T02:08:27;-1.60;99.90
1461;DHT22;724;49.910;12.530;2022-12-10T02:11:06;-1.60;99.90
1461;DHT22;724;49.910;12.530;2022-12-10T02:13:40;-1.50;99.90
1461;DHT22;724;49.910;12.530;2022-12-10T02:16:13;-1.50;99.90
1461;DHT22;724;49.910;12.530;2022-12-10T02:18:43;-1.50;99.90
1461;DHT22;724;49.910;12.530;2022-12-10T02:21:16;-1.50;99.90
1461;DHT22;724;49.910;12.530;2022-12-10T02:23:47;-1.50;99.90
1461;DHT22;724;49.910;12.530;2022-12-10T02:26:22;-1.50;99.90
1461;DHT22;724;49.910;12.530;2022-12-10T02:29:01;-1.50;99.90
1461;DHT22;724;49.910;12.530;2022-12-10T02:31:32;-1.50;99.90
1461;DHT22;724;49.910;12.530;2022-12-10T02:34:03;-1.50;99.90
1461;DHT22;724;49.910;12.530;2022-12-10T02:36:34;-1.40;99.90
1461;DHT22;724;49.910;12.530;2022-12-10T02:39:07;-1.40;99.90
1461;DHT22;724;49.910;12.530;2022-12-10T02:41:36;-1.40;99.90
1461;DHT22;724;49.910;12.530;2022-12-10T02:44:08;-1.50;99.90
1461;DHT22;724;49.910;12.530;2022-12-10T02:46:38;-1.50;99.90
1461;DHT22;724;49.910;12.530;2022-12-10T02:49:07;-1.60;99.90
1461;DHT22;724;49.910;12.530;2022-12-10T02:51:35;-1.50;99.90
1461;DHT22;724;49.910;12.530;2022-12-10T02:54:04;-1.40;99.90
1461;DHT22;724;49.910;12.530;2022-12-10T02:56:34;-1.40;99.90
1461;DHT22;724;49.910;12.530;2022-12-10T02:59:10;-1.40;99.90
1461;DHT22;724;49.910;12.530;2022-12-10T03:01:44;-1.40;99.90
1461;DHT22;724;49.910;12.530;2022-12-10T03:04:19;-1.40;99.90
1461;DHT22;724;49.910;12.530;2022-12-10T03:06:51;-1.50;99.90
1461;DHT22;724;49.910;12.530;2022-12-10T03:09:22;-1.50;99.90
1461;DHT22;724;49.910;12.530;2022-12-10T03:11:52;-1.50;99.90
1461;DHT22;724;49.910;12.530;2022-12-10T03:14:27;-1.40;99.90
1461;DHT22;724;49.910;12.530;2022-12-10T03:16:56;-1.50;99.90
1461;DHT22;724;49.910;12.530;2022-12-10T03:19:27;-1.50;99.90
1461;DHT22;724;49.910;12.530;2022-12-10T03:21:56;-1.40;99.90
1461;DHT22;724;49.910;12.530;2022-12-10T03:24:26;-1.40;91.30
1461;DHT22;724;49.910;12.530;2022-12-10T03:26:54;-1.40;84.40
1461;DHT22;724;49.910;12.530;2022-12-10T03:29:24;-1.40;42.90
1461;DHT22;724;49.910;12.530;2022-12-10T03:31:54;-1.40;23.90
1461;DHT22;724;49.910;12.530;2022-12-10T03:34:21;-1.40;1.00
1461;DHT22;724;49.910;12.530;2022-12-10T03:36:49;-1.40;1.00
1461;DHT22;724;49.910;12.530;2022-12-10T03:39:16;-1.30;1.00
1461;DHT22;724;49.910;12.530;2022-12-10T03:41:43;-1.30;1.00
1461;DHT22;724;49.910;12.530;2022-12-10T03:44:11;-1.30;1.00
1461;DHT22;724;49.910;12.530;2022-12-10T03:46:39;-1.40;1.00
1461;DHT22;724;49.910;12.530;2022-12-10T03:49:06;-1.30;1.00
1461;DHT22;724;49.910;12.530;2022-12-10T03:51:33;-1.30;1.00
1461;DHT22;724;49.910;12.530;2022-12-10T03:53:59;-1.30;1.00
1461;DHT22;724;49.910;12.530;2022-12-10T03:56:26;-1.40;1.00
1461;DHT22;724;49.910;12.530;2022-12-10T03:58:53;-1.40;1.00
1461;DHT22;724;49.910;12.530;2022-12-10T04:01:20;-1.40;1.00
1461;DHT22;724;49.910;12.530;2022-12-10T04:03:48;-1.30;1.00
1461;DHT22;724;49.910;12.530;2022-12-10T04:06:16;-1.40;1.00
1461;DHT22;724;49.910;12.530;2022-12-10T04:08:44;-1.40;1.00
1461;DHT22;724;49.910;12.530;2022-12-10T04:11:12;-1.40;1.00
1461;DHT22;724;49.910;12.530;2022-12-10T04:13:40;-1.40;1.00
1461;DHT22;724;49.910;12.530;2022-12-10T04:16:25;-1.30;1.00
1461;DHT22;724;49.910;12.530;2022-12-10T04:18:57;-1.50;1.00
1461;DHT22;724;49.910;12.530;2022-12-10T04:21:25;-1.50;1.00
1461;DHT22;724;49.910;12.530;2022-12-10T04:24:10;-1.50;1.00
1461;DHT22;724;49.910;12.530;2022-12-10T04:26:55;-1.60;1.00
1461;DHT22;724;49.910;12.530;2022-12-10T04:29:25;-1.40;2.40
1461;DHT22;724;49.910;12.530;2022-12-10T04:31:52;-1.50;1.00
1461;DHT22;724;49.910;12.530;2022-12-10T04:34:21;-1.50;14.40
1461;DHT22;724;49.910;12.530;2022-12-10T04:36:49;-1.50;37.10
1461;DHT22;724;49.910;12.530;2022-12-10T04:39:17;-1.60;93.40
1461;DHT22;724;49.910;12.530;2022-12-10T04:41:46;-1.70;99.90
1461;DHT22;724;49.910;12.530;2022-12-10T04:44:14;-1.60;99.90
1461;DHT22;724;49.910;12.530;2022-12-10T04:46:40;-1.50;99.90
1461;DHT22;724;49.910;12.530;2022-12-10T04:49:08;-1.50;99.90
1461;DHT22;724;49.910;12.530;2022-12-10T04:51:36;-1.50;99.90
1461;DHT22;724;49.910;12.530;2022-12-10T04:54:03;-1.50;99.90
1461;DHT22;724;49.910;12.530;2022-12-10T04:56:30;-1.60;99.90
1461;DHT22;724;49.910;12.530;2022-12-10T04:58:58;-1.60;99.90
1461;DHT22;724;49.910;12.530;2022-12-10T05:01:26;-1.50;99.90
1461;DHT22;724;49.910;12.530;2022-12-10T05:03:53;-1.60;99.90
1461;DHT22;724;49.910;12.530;2022-12-10T05:06:21;-1.60;99.90
1461;DHT22;724;49.910;12.530;2022-12-10T05:08:49;-1.60;99.90
1461;DHT22;724;49.910;12.530;2022-12-10T05:11:18;-1.60;99.90
1461;DHT22;724;49.910;12.530;2022-12-10T05:13:45;-1.60;99.90
1461;DHT22;724;49.910;12.530;2022-12-10T05:16:17;-1.50;99.90
1461;DHT22;724;49.910;12.530;2022-12-10T05:18:44;-1.50;99.90
1461;DHT22;724;49.910;12.530;2022-12-10T05:21:12;-1.50;99.90
1461;DHT22;724;49.910;12.530;2022-12-10T05:23:42;-1.60;99.90
1461;DHT22;724;49.910;12.530;2022-12-10T05:26:11;-1.50;99.90
1461;DHT22;724;49.910;12.530;2022-12-10T05:28:42;-1.50;99.90
1461;DHT22;724;49.910;12.530;2022-12-10T05:31:15;-1.50;99.90
1461;DHT22;724;49.910;12.530;2022-12-10T05:33:42;-1.50;99.90
1461;DHT22;724;49.910;12.530;2022-12-10T05:36:11;-1.50;99.90
1461;DHT22;724;49.910;12.530;2022-12-10T05:38:40;-1.50;99.90
1461;DHT22;724;49.910;12.530;2022-12-10T05:41:10;-1.40;99.90
1461;DHT22;724;49.910;12.530;2022-12-10T05:43:37;-1.50;99.90
1461;DHT22;724;49.910;12.530;2022-12-10T05:46:06;-1.50;99.90
1461;DHT22;724;49.910;12.530;2022-12-10T05:48:34;-1.50;99.90
1461;DHT22;724;49.910;12.530;2022-12-10T05:51:03;-1.40;99.90
1461;DHT22;724;49.910;12.530;2022-12-10T05:53:30;-1.40;99.90
1461;DHT22;724;49.910;12.530;2022-12-10T05:56:01;-1.40;99.90
1461;DHT22;724;49.910;12.530;2022-12-10T05:58:29;-1.40;99.90
1461;DHT22;724;49.910;12.530;2022-12-10T06:00:56;-1.30;99.90
1461;DHT22;724;49.910;12.530;2022-12-10T06:03:23;-1.30;99.90
1461;DHT22;724;49.910;12.530;2022-12-10T06:05:51;-1.30;99.90
1461;DHT22;724;49.910;12.530;2022-12-10T06:08:18;-1.30;99.90
1461;DHT22;724;49.910;12.530;2022-12-10T06:10:45;-1.50;99.90
1461;DHT22;724;49.910;12.530;2022-12-10T06:13:12;-1.40;99.90
1461;DHT22;724;49.910;12.530;2022-12-10T06:15:41;-1.40;99.90
1461;DHT22;724;49.910;12.530;2022-12-10T06:18:08;-1.40;99.90
1461;DHT22;724;49.910;12.530;2022-12-10T06:20:37;-1.30;99.90
1461;DHT22;724;49.910;12.530;2022-12-10T06:23:04;-1.30;81.90
1461;DHT22;724;49.910;12.530;2022-12-10T06:25:31;-1.30;30.10
1461;DHT22;724;49.910;12.530;2022-12-10T06:27:58;-1.30;13.40
1461;DHT22;724;49.910;12.530;2022-12-10T06:30:25;-1.30;1.00
1461;DHT22;724;49.910;12.530;2022-12-10T06:32:53;-1.40;1.00
1461;DHT22;724;49.910;12.530;2022-12-10T06:35:20;-1.40;1.00
1461;DHT22;724;49.910;12.530;2022-12-10T06:37:48;-1.40;1.00
1461;DHT22;724;49.910;12.530;2022-12-10T06:40:15;-1.40;1.00
1461;DHT22;724;49.910;12.530;2022-12-10T06:42:42;-1.50;1.00
1461;DHT22;724;49.910;12.530;2022-12-10T06:45:09;-1.50;1.00
1461;DHT22;724;49.910;12.530;2022-12-10T06:47:36;-1.40;28.40
1461;DHT22;724;49.910;12.530;2022-12-10T06:50:06;-1.40;60.50
1461;DHT22;724;49.910;12.530;2022-12-10T06:52:33;-1.40;77.10
1461;DHT22;724;49.910;12.530;2022-12-10T06:54:59;-1.40;91.90
1461;DHT22;724;49.910;12.530;2022-12-10T06:57:27;-1.40;93.90
1461;DHT22;724;49.910;12.530;2022-12-10T06:59:54;-1.40;98.50
1461;DHT22;724;49.910;12.530;2022-12-10T07:02:21;-1.40;98.30
1461;DHT22;724;49.910;12.530;2022-12-10T07:04:47;-1.40;91.40
1461;DHT22;724;49.910;12.530;2022-12-10T07:07:15;-1.40;73.30
1461;DHT22;724;49.910;12.530;2022-12-10T07:09:42;-1.40;55.80
1461;DHT22;724;49.910;12.530;2022-12-10T07:12:09;-1.40;26.40
1461;DHT22;724;49.910;12.530;2022-12-10T07:14:36;-1.40;17.30
1461;DHT22;724;49.910;12.530;2022-12-10T07:17:02;-1.40;1.00
1461;DHT22;724;49.910;12.530;2022-12-10T07:19:30;-1.40;1.00
1461;DHT22;724;49.910;12.530;2022-12-10T07:21:57;-1.40;1.00
1461;DHT22;724;49.910;12.530;2022-12-10T07:24:25;-1.50;1.00
1461;DHT22;724;49.910;12.530;2022-12-10T07:26:52;-1.60;1.00
1461;DHT22;724;49.910;12.530;2022-12-10T07:29:21;-1.50;46.40
1461;DHT22;724;49.910;12.530;2022-12-10T07:31:48;-1.40;82.00
1461;DHT22;724;49.910;12.530;2022-12-10T07:34:16;-1.40;92.40
1461;DHT22;724;49.910;12.530;2022-12-10T07:36:43;-1.40;72.60
1461;DHT22;724;49.910;12.530;2022-12-10T07:39:10;-1.30;52.50
1461;DHT22;724;49.910;12.530;2022-12-10T07:41:44;-1.30;1.00
1461;DHT22;724;49.910;12.530;2022-12-10T07:44:12;-1.40;1.00
1461;DHT22;724;49.910;12.530;2022-12-10T07:46:40;-1.40;1.00
1461;DHT22;724;49.910;12.530;2022-12-10T07:49:07;-1.30;1.00
1461;DHT22;724;49.910;12.530;2022-12-10T07:51:33;-1.30;1.00
1461;DHT22;724;49.910;12.530;2022-12-10T07:54:00;-1.30;1.00
1461;DHT22;724;49.910;12.530;2022-12-10T07:56:27;-1.20;1.00
1461;DHT22;724;49.910;12.530;2022-12-10T07:58:55;-1.30;1.00
1461;DHT22;724;49.910;12.530;2022-12-10T08:01:24;-1.20;1.00
1461;DHT22;724;49.910;12.530;2022-12-10T08:03:52;-1.30;1.00
1461;DHT22;724;49.910;12.530;2022-12-10T08:06:20;-1.40;1.00
1461;DHT22;724;49.910;12.530;2022-12-10T08:08:48;-1.30;1.00
1461;DHT22;724;49.910;12.530;2022-12-10T08:11:17;-1.30;1.00
1461;DHT22;724;49.910;12.530;2022-12-10T08:13:44;-1.30;1.00
1461;DHT22;724;49.910;12.530;2022-12-10T08:16:15;-1.20;1.00
1461;DHT22;724;49.910;12.530;2022-12-10T08:18:42;-1.20;1.00
1461;DHT22;724;49.910;12.530;2022-12-10T08:21:12;-1.20;1.00
1461;DHT22;724;49.910;12.530;2022-12-10T08:23:39;-1.20;1.00
1461;DHT22;724;49.910;12.530;2022-12-10T08:26:08;-1.20;1.00
1461;DHT22;724;49.910;12.530;2022-12-10T08:28:35;-1.20;1.00
1461;DHT22;724;49.910;12.530;2022-12-10T08:31:03;-1.20;1.00
1461;DHT22;724;49.910;12.530;2022-12-10T08:33:32;-1.20;1.00
1461;DHT22;724;49.910;12.530;2022-12-10T08:35:59;-1.20;1.00
1461;DHT22;724;49.910;12.530;2022-12-10T08:38:28;-1.20;1.00
1461;DHT22;724;49.910;12.530;2022-12-10T08:40:55;-1.20;1.00
1461;DHT22;724;49.910;12.530;2022-12-10T08:43:22;-1.30;1.00
1461;DHT22;724;49.910;12.530;2022-12-10T08:45:49;-1.20;1.00
1461;DHT22;724;49.910;12.530;2022-12-10T08:48:15;-1.20;1.00
1461;DHT22;724;49.910;12.530;2022-12-10T08:50:44;-1.10;1.00
1461;DHT22;724;49.910;12.530;2022-12-10T08:53:11;-1.00;1.00
1461;DHT22;724;49.910;12.530;2022-12-10T08:55:40;-0.60;1.00
1461;DHT22;724;49.910;12.530;2022-12-10T08:58:07;-0.70;1.00
1461;DHT22;724;49.910;12.530;2022-12-10T09:00:36;-0.60;1.00
1461;DHT22;724;49.910;12.530;2022-12-10T09:03:04;-0.50;1.00
1461;DHT22;724;49.910;12.530;2022-12-10T09:05:31;-0.50;1.00
1461;DHT22;724;49.910;12.530;2022-12-10T09:07:59;-0.50;1.00
1461;DHT22;724;49.910;12.530;2022-12-10T09:10:26;-0.70;99.90
1461;DHT22;724;49.910;12.530;2022-12-10T09:12:52;-0.80;99.90
1461;DHT22;724;49.910;12.530;2022-12-10T09:15:20;-0.90;99.90
1461;DHT22;724;49.910;12.530;2022-12-10T09:17:47;-0.90;99.90
1461;DHT22;724;49.910;12.530;2022-12-10T09:20:14;-0.80;99.90
1461;DHT22;724;49.910;12.530;2022-12-10T09:22:41;-0.80;99.90
1461;DHT22;724;49.910;12.530;2022-12-10T09:25:09;-0.70;99.90
1461;DHT22;724;49.910;12.530;2022-12-10T09:27:36;-0.60;99.90
1461;DHT22;724;49.910;12.530;2022-12-10T09:30:05;-0.50;99.90
1461;DHT22;724;49.910;12.530;2022-12-10T09:32:31;-0.50;99.90
1461;DHT22;724;49.910;12.530;2022-12-10T09:34:58;-0.40;99.90
1461;DHT22;724;49.910;12.530;2022-12-10T09:37:25;-0.30;1.00
1461;DHT22;724;49.910;12.530;2022-12-10T09:39:52;-0.40;1.00
1461;DHT22;724;49.910;12.530;2022-12-10T09:42:29;-0.40;1.00
1461;DHT22;724;49.910;12.530;2022-12-10T09:45:04;-0.50;1.00
1461;DHT22;724;49.910;12.530;2022-12-10T09:47:39;-0.50;1.00
1461;DHT22;724;49.910;12.530;2022-12-10T09:50:12;-0.60;1.00
1461;DHT22;724;49.910;12.530;2022-12-10T09:52:45;-0.60;1.00
1461;DHT22;724;49.910;12.530;2022-12-10T09:55:17;-0.30;1.00
1461;DHT22;724;49.910;12.530;2022-12-10T09:57:47;-0.20;1.00
1461;DHT22;724;49.910;12.530;2022-12-10T10:00:21;-0.10;1.00
1461;DHT22;724;49.910;12.530;2022-12-10T10:02:50;-0.20;1.00
1461;DHT22;724;49.910;12.530;2022-12-10T10:05:21;-0.10;99.90
1461;DHT22;724;49.910;12.530;2022-12-10T10:07:51;0.00;99.90
1461;DHT22;724;49.910;12.530;2022-12-10T10:10:26;-0.10;99.90
1461;DHT22;724;49.910;12.530;2022-12-10T10:12:58;-0.20;99.90
1461;DHT22;724;49.910;12.530;2022-12-10T10:15:31;-0.20;99.90
1461;DHT22;724;49.910;12.530;2022-12-10T10:18:01;-0.20;99.90
1461;DHT22;724;49.910;12.530;2022-12-10T10:20:29;-0.10;99.90
1461;DHT22;724;49.910;12.530;2022-12-10T10:22:57;0.10;99.90
1461;DHT22;724;49.910;12.530;2022-12-10T10:25:25;0.20;99.90
1461;DHT22;724;49.910;12.530;2022-12-10T10:27:54;0.30;59.30
1461;DHT22;724;49.910;12.530;2022-12-10T10:30:23;0.30;1.00
1461;DHT22;724;49.910;12.530;2022-12-10T10:32:52;0.40;1.00
1461;DHT22;724;49.910;12.530;2022-12-10T10:35:25;0.40;1.00
1461;DHT22;724;49.910;12.530;2022-12-10T10:37:56;0.50;1.00
1461;DHT22;724;49.910;12.530;2022-12-10T10:40:27;0.50;99.90
1461;DHT22;724;49.910;12.530;2022-12-10T10:42:57;0.20;99.90
1461;DHT22;724;49.910;12.530;2022-12-10T10:45:35;0.30;99.90
1461;DHT22;724;49.910;12.530;2022-12-10T10:48:05;0.60;99.90
1461;DHT22;724;49.910;12.530;2022-12-10T10:50:37;0.60;99.90
1461;DHT22;724;49.910;12.530;2022-12-10T10:53:23;0.80;99.90
1461;DHT22;724;49.910;12.530;2022-12-10T10:55:51;0.80;21.40
1461;DHT22;724;49.910;12.530;2022-12-10T10:58:20;1.00;1.00
1461;DHT22;724;49.910;12.530;2022-12-10T11:00:56;1.10;1.00
1461;DHT22;724;49.910;12.530;2022-12-10T11:03:26;1.10;1.00
1461;DHT22;724;49.910;12.530;2022-12-10T11:05:54;1.00;99.90
1461;DHT22;724;49.910;12.530;2022-12-10T11:08:24;0.90;99.90
1461;DHT22;724;49.910;12.530;2022-12-10T11:10:58;0.70;99.50
1461;DHT22;724;49.910;12.530;2022-12-10T11:13:30;0.60;75.70
1461;DHT22;724;49.910;12.530;2022-12-10T11:15:59;1.00;99.90
1461;DHT22;724;49.910;12.530;2022-12-10T11:18:32;2.80;1.00
1461;DHT22;724;49.910;12.530;2022-12-10T11:21:03;1.50;1.00
1461;DHT22;724;49.910;12.530;2022-12-10T11:23:35;1.10;1.00
1461;DHT22;724;49.910;12.530;2022-12-10T11:26:13;1.00;1.00
1461;DHT22;724;49.910;12.530;2022-12-10T11:28:51;1.60;1.00
1461;DHT22;724;49.910;12.530;2022-12-10T11:31:35;1.40;1.00
1461;DHT22;724;49.910;12.530;2022-12-10T11:34:12;1.00;1.00
1461;DHT22;724;49.910;12.530;2022-12-10T11:36:51;1.20;1.00
1461;DHT22;724;49.910;12.530;2022-12-10T11:39:35;1.00;1.00
1461;DHT22;724;49.910;12.530;2022-12-10T11:42:11;0.90;1.00
1461;DHT22;724;49.910;12.530;2022-12-10T11:44:46;0.90;1.00
1461;DHT22;724;49.910;12.530;2022-12-10T11:47:39;1.00;1.00
1461;DHT22;724;49.910;12.530;2022-12-10T11:50:18;1.00;1.00
1461;DHT22;724;49.910;12.530;2022-12-10T11:52:56;0.90;1.00
1461;DHT22;724;49.910;12.530;2022-12-10T11:55:38;0.80;1.00
1461;DHT22;724;49.910;12.530;2022-12-10T11:58:24;0.90;1.00
1461;DHT22;724;49.910;12.530;2022-12-10T12:01:00;0.70;1.00
1461;DHT22;724;49.910;12.530;2022-12-10T12:03:52;0.70;1.00
1461;DHT22;724;49.910;12.530;2022-12-10T12:06:34;0.60;1.00
1461;DHT22;724;49.910;12.530;2022-12-10T12:09:10;0.60;1.00
1461;DHT22;724;49.910;12.530;2022-12-10T12:11:54;0.70;1.00
1461;DHT22;724;49.910;12.530;2022-12-10T12:14:26;0.60;1.00
1461;DHT22;724;49.910;12.530;2022-12-10T12:17:02;0.50;1.00
1461;DHT22;724;49.910;12.530;2022-12-10T12:19:37;0.50;1.00
1461;DHT22;724;49.910;12.530;2022-12-10T12:22:11;0.50;1.00
1461;DHT22;724;49.910;12.530;2022-12-10T12:24:42;0.60;1.00
1461;DHT22;724;49.910;12.530;2022-12-10T12:27:16;0.50;1.00
1461;DHT22;724;49.910;12.530;2022-12-10T12:29:57;0.40;1.00
1461;DHT22;724;49.910;12.530;2022-12-10T12:32:30;0.40;1.00
1461;DHT22;724;49.910;12.530;2022-12-10T12:34:59;0.40;1.00
1461;DHT22;724;49.910;12.530;2022-12-10T12:37:34;0.40;1.00
1461;DHT22;724;49.910;12.530;2022-12-10T12:40:07;0.50;63.50
1461;DHT22;724;49.910;12.530;2022-12-10T12:42:40;0.40;96.80
1461;DHT22;724;49.910;12.530;2022-12-10T12:45:12;0.50;99.90
1461;DHT22;724;49.910;12.530;2022-12-10T12:47:46;0.40;98.10
1461;DHT22;724;49.910;12.530;2022-12-10T12:50:23;0.40;98.40
1461;DHT22;724;49.910;12.530;2022-12-10T12:52:52;0.40;99.90
1461;DHT22;724;49.910;12.530;2022-12-10T12:55:24;0.50;99.90
1461;DHT22;724;49.910;12.530;2022-12-10T12:58:07;0.50;99.90
1461;DHT22;724;49.910;12.530;2022-12-10T13:00:38;0.40;99.90
1461;DHT22;724;49.910;12.530;2022-12-10T13:03:23;0.30;99.90
1461;DHT22;724;49.910;12.530;2022-12-10T13:05:54;0.30;91.30
1461;DHT22;724;49.910;12.530;2022-12-10T13:08:29;0.20;66.10
1461;DHT22;724;49.910;12.530;2022-12-10T13:10:59;0.40;79.20
1461;DHT22;724;49.910;12.530;2022-12-10T13:13:31;0.30;68.60
1461;DHT22;724;49.910;12.530;2022-12-10T13:16:45;0.40;99.90
1461;DHT22;724;49.910;12.530;2022-12-10T13:19:25;0.40;99.90
1461;DHT22;724;49.910;12.530;2022-12-10T13:22:03;0.30;99.90
1461;DHT22;724;49.910;12.530;2022-12-10T13:27:32;0.20;99.90
1461;DHT22;724;49.910;12.530;2022-12-10T13:30:04;0.10;99.90
1461;DHT22;724;49.910;12.530;2022-12-10T13:32:53;0.30;99.90
1461;DHT22;724;49.910;12.530;2022-12-10T13:35:28;0.10;99.90
1461;DHT22;724;49.910;12.530;2022-12-10T13:38:03;0.00;99.90
1461;DHT22;724;49.910;12.530;2022-12-10T13:40:40;0.10;99.90
1461;DHT22;724;49.910;12.530;2022-12-10T13:43:29;0.00;99.90
1461;DHT22;724;49.910;12.530;2022-12-10T13:46:30;0.10;99.90
1461;DHT22;724;49.910;12.530;2022-12-10T13:48:58;0.00;96.30
1461;DHT22;724;49.910;12.530;2022-12-10T13:57:30;-0.10;17.50
1461;DHT22;724;49.910;12.530;2022-12-10T14:00:06;0.00;46.50
1461;DHT22;724;49.910;12.530;2022-12-10T14:03:09;0.00;17.80
1461;DHT22;724;49.910;12.530;2022-12-10T14:05:53;0.00;66.90
1461;DHT22;724;49.910;12.530;2022-12-10T14:08:27;0.00;95.20
1461;DHT22;724;49.910;12.530;2022-12-10T14:10:56;-0.10;63.30
1461;DHT22;724;49.910;12.530;2022-12-10T14:13:30;0.00;28.60
1461;DHT22;724;49.910;12.530;2022-12-10T14:16:01;-0.20;1.00
1461;DHT22;724;49.910;12.530;2022-12-10T14:18:30;-0.30;43.40
1461;DHT22;724;49.910;12.530;2022-12-10T14:20:57;-0.30;99.90
1461;DHT22;724;49.910;12.530;2022-12-10T14:23:32;-0.30;99.90
1461;DHT22;724;49.910;12.530;2022-12-10T14:26:04;-0.40;99.90
1461;DHT22;724;49.910;12.530;2022-12-10T14:28:32;-0.40;99.90
1461;DHT22;724;49.910;12.530;2022-12-10T14:30:59;-0.40;99.90
1461;DHT22;724;49.910;12.530;2022-12-10T14:33:27;-0.50;1.00
1461;DHT22;724;49.910;12.530;2022-12-10T14:35:54;-0.50;1.00
1461;DHT22;724;49.910;12.530;2022-12-10T14:38:27;-0.60;1.00
1461;DHT22;724;49.910;12.530;2022-12-10T14:41:00;-0.80;1.00
1461;DHT22;724;49.910;12.530;2022-12-10T14:43:32;-0.80;1.00
1461;DHT22;724;49.910;12.530;2022-12-10T14:46:03;-0.80;1.00
1461;DHT22;724;49.910;12.530;2022-12-10T14:48:30;-0.90;1.00
1461;DHT22;724;49.910;12.530;2022-12-10T14:51:12;-1.00;1.00
1461;DHT22;724;49.910;12.530;2022-12-10T14:53:39;-1.10;1.00
1461;DHT22;724;49.910;12.530;2022-12-10T14:56:18;-1.20;1.00
1461;DHT22;724;49.910;12.530;2022-12-10T14:58:50;-1.20;1.00
1461;DHT22;724;49.910;12.530;2022-12-10T15:01:25;-1.20;1.00
1461;DHT22;724;49.910;12.530;2022-12-10T15:03:53;-1.20;1.00
1461;DHT22;724;49.910;12.530;2022-12-10T15:06:21;-1.20;1.00
1461;DHT22;724;49.910;12.530;2022-12-10T15:08:50;-1.30;99.90
1461;DHT22;724;49.910;12.530;2022-12-10T15:11:21;-1.30;99.90
1461;DHT22;724;49.910;12.530;2022-12-10T15:13:51;-1.40;99.90
1461;DHT22;724;49.910;12.530;2022-12-10T15:16:20;-1.30;99.90
1461;DHT22;724;49.910;12.530;2022-12-10T15:18:53;-1.50;99.90
1461;DHT22;724;49.910;12.530;2022-12-10T15:21:24;-1.50;99.90
1461;DHT22;724;49.910;12.530;2022-12-10T15:24:09;-1.50;99.90
1461;DHT22;724;49.910;12.530;2022-12-10T15:26:42;-1.50;1.00
1461;DHT22;724;49.910;12.530;2022-12-10T15:29:33;-1.50;1.00
1461;DHT22;724;49.910;12.530;2022-12-10T15:32:04;-1.60;1.00
1461;DHT22;724;49.910;12.530;2022-12-10T15:34:38;-1.60;1.00
1461;DHT22;724;49.910;12.530;2022-12-10T15:37:05;-1.70;1.00
1461;DHT22;724;49.910;12.530;2022-12-10T15:39:38;-1.60;1.00
1461;DHT22;724;49.910;12.530;2022-12-10T15:42:31;-1.70;1.00
1461;DHT22;724;49.910;12.530;2022-12-10T15:45:11;-1.70;1.00
1461;DHT22;724;49.910;12.530;2022-12-10T15:47:39;-1.80;1.00
1461;DHT22;724;49.910;12.530;2022-12-10T15:50:07;-1.70;1.00
1461;DHT22;724;49.910;12.530;2022-12-10T15:52:34;-1.80;1.00
1461;DHT22;724;49.910;12.530;2022-12-10T15:55:01;-1.80;1.00
1461;DHT22;724;49.910;12.530;2022-12-10T15:57:31;-1.80;1.00
1461;DHT22;724;49.910;12.530;2022-12-10T16:00:00;-1.80;1.00
1461;DHT22;724;49.910;12.530;2022-12-10T16:02:35;-1.90;99.90
1461;DHT22;724;49.910;12.530;2022-12-10T16:05:04;-1.90;99.90
1461;DHT22;724;49.910;12.530;2022-12-10T16:07:36;-1.90;99.90
1461;DHT22;724;49.910;12.530;2022-12-10T16:10:04;-2.00;99.90
1461;DHT22;724;49.910;12.530;2022-12-10T16:12:33;-2.00;99.90
1461;DHT22;724;49.910;12.530;2022-12-10T16:15:01;-2.00;99.90
1461;DHT22;724;49.910;12.530;2022-12-10T16:17:29;-2.10;99.90
1461;DHT22;724;49.910;12.530;2022-12-10T16:19:57;-2.10;99.90
1461;DHT22;724;49.910;12.530;2022-12-10T16:22:26;-2.10;99.90
1461;DHT22;724;49.910;12.530;2022-12-10T16:24:53;-2.20;99.90
1461;DHT22;724;49.910;12.530;2022-12-10T16:27:19;-2.30;99.90
1461;DHT22;724;49.910;12.530;2022-12-10T16:29:48;-2.30;99.90
1461;DHT22;724;49.910;12.530;2022-12-10T16:32:15;-2.30;99.90
1461;DHT22;724;49.910;12.530;2022-12-10T16:34:42;-2.30;99.90
1461;DHT22;724;49.910;12.530;2022-12-10T16:37:09;-2.30;99.90
1461;DHT22;724;49.910;12.530;2022-12-10T16:39:36;-2.30;99.90
1461;DHT22;724;49.910;12.530;2022-12-10T16:42:03;-2.40;99.90
1461;DHT22;724;49.910;12.530;2022-12-10T16:44:30;-2.40;99.90